Holden, Louisiana
Current Conditions -  °F | °C
As of 4:15 PM on Thursday 18 Dec 2014 (Local Time) from KL38 Reporting Station
Light Rain Light Rain  
Wind Chill: 63°   Ceiling: 2600
Heat Index: 63°   Visibility: 10mi
Dew Point: 56°   Wind: 6mph
Humidity: 79%   Direction: 20°NNE
Pressure: 30.08"   Gusts: NA
Location:  30.5°N, 90.67°W
Report Text: KL38 182215Z AUTO 02005KT 10SM -RA OVC026 17/13 A3008 RMK AO2 T01700133
Loading
Personal Weather Stations






























Interactive Weather Map New forecast layout! Learn more

10-Day Weather Forecast

Advertisements
Track Severe Weather on mobile